Hovedside
METAR-TAF:

METAR-TAF

Lufthavner :

Cairns, Australia

breddegrad: 16-53S, lengdegrad: 145-45E, høyde over havet: 3 m

Gjeldene værobservasjon

Denne rapporten ble laget for 27 minutter siden, klokken 05:00 UTC
Vind 16 kt fra Øst-sørøst
Temperatur 29°C
Luftfuktighet 58%
Trykk 1011 hPa
Sikt 10 km eller mer

METAR: YBCS 200500Z AUTO 12016KT 9999 // NCD 29/20 Q1011 RMK RF00.0/000.0 NOSIG

Tid: 15:27 (05:27 UTC)

Varsel

Denne rapporten ble laget for 6 timer og 6 minutter siden, klokken 23:21 UTC
Varsel gyldig fra 20. klokken 00 UTC til 20. klokken 24 UTC
Vind 14 kt fra Sørøst
Sikt 10 km eller mer
Spredte skyer i en høyde av 2800 ft
lette regnbyger

TAF: YBCS 192321Z 2000/2024 13014KT 9999 -SHRA SCT028

Værobservasjoner og værvarsel for over 4000 flyplasser (METAR- og TAF-rapporter).

Tilgjengelige stasjoner er representert av de røde og gule prikkene på kartet.

Hold musepekeren over prikken for å se navnet på stasjonen.

Klikk så for å se værobservasjoner og -varsler.

For å forandre kartet kan du klikke på den grønne knappen med svart kryss for å zoome inn, på den grønne knappen med strek for å zoome ut, eller på de grønne pilene for å se tilstøtende kart.


METAR-TAF: